Time;durP1;ratioP1;P1;durP2;ratioP2;P2;SDS_P1;SDS_P2;PMS_P1;PMS_P2;Temp;Humidity;BMP_temperature;BMP_pressure;BME280_temperature;BME280_humidity;BME280_pressure;Samples;Min_cycle;Max_cycle;Signal;HPM_P1;HPM_P2
2022/03/26 07:58:42;;;;;;;25.20;16.83;;;;;;;10.00;66.13;103093.94;5279918;28;20391;-65
2022/03/26 08:01:13;;;;;;;157.93;32.03;;;;;;;10.15;65.70;103095.44;5280028;28;20396;-65
2022/03/26 08:03:44;;;;;;;34.22;21.92;;;;;;;10.27;64.25;103088.06;5259849;28;20021;-66
2022/03/26 08:06:16;;;;;;;30.75;18.48;;;;;;;10.47;64.15;103092.53;5270130;28;20119;-68
2022/03/26 08:08:47;;;;;;;36.45;22.30;;;;;;;10.55;64.76;103093.03;5279338;28;20548;-68
2022/03/26 08:11:19;;;;;;;35.65;21.92;;;;;;;10.74;63.81;103093.84;5279702;28;20028;-68
2022/03/26 08:13:50;;;;;;;35.60;20.92;;;;;;;10.75;62.21;103086.38;5279811;28;20021;-68
2022/03/26 08:16:21;;;;;;;31.38;22.30;;;;;;;10.79;59.42;103094.00;5265897;28;20017;-69
2022/03/26 08:18:53;;;;;;;32.35;22.33;;;;;;;10.96;61.56;103098.84;5262776;28;20402;-67
2022/03/26 08:21:24;;;;;;;44.78;31.73;;;;;;;11.20;62.97;103094.22;5279502;28;20499;-69
2022/03/26 08:23:55;;;;;;;45.30;29.85;;;;;;;11.38;63.65;103096.03;5262750;28;20021;-67
2022/03/26 08:26:29;;;;;;;33.60;21.77;;;;;;;11.35;60.19;103089.03;5258655;28;20038;-66
2022/03/26 08:29:01;;;;;;;45.95;28.05;;;;;;;11.55;60.38;103099.78;5258571;28;20048;-65
2022/03/26 08:31:35;;;;;;;35.67;23.08;;;;;;;11.67;60.66;103099.78;5257689;28;20029;-67
2022/03/26 08:34:06;;;;;;;33.13;21.88;;;;;;;11.78;59.90;103093.34;5259167;28;20057;-66
2022/03/26 08:36:40;;;;;;;33.40;21.80;;;;;;;11.87;60.99;103102.22;5258446;28;20069;-66
2022/03/26 08:39:12;;;;;;;34.70;21.83;;;;;;;11.96;58.75;103100.75;5260477;28;20033;-67
2022/03/26 08:41:44;;;;;;;31.58;22.17;;;;;;;11.96;56.85;103100.75;5279099;28;20416;-66
2022/03/26 08:44:15;;;;;;;33.33;22.27;;;;;;;12.11;60.31;103103.00;5278754;28;20052;-67
2022/03/26 08:46:47;;;;;;;48.38;29.48;;;;;;;12.26;60.47;103108.91;5278763;28;20048;-66
2022/03/26 08:49:18;;;;;;;121.00;94.50;;;;;;;12.27;59.52;103113.41;5278840;28;20458;-65
2022/03/26 08:51:51;;;;;;;42.47;31.17;;;;;;;12.20;56.52;103109.06;5278300;28;20468;-65
2022/03/26 08:54:23;;;;;;;36.08;24.55;;;;;;;12.36;58.10;103114.69;5278031;28;20033;-66
2022/03/26 08:56:54;;;;;;;31.85;23.27;;;;;;;12.38;57.24;103109.72;5270513;28;20485;-65
2022/03/26 08:59:25;;;;;;;38.20;24.73;;;;;;;12.48;57.31;103114.66;5257361;28;20045;-66
2022/03/26 09:01:57;;;;;;;33.10;23.25;;;;;;;12.57;57.31;103113.16;5263099;28;20094;-67
2022/03/26 09:04:28;;;;;;;30.65;21.30;;;;;;;12.53;56.29;103113.91;5278881;28;20017;-69
2022/03/26 09:06:59;;;;;;;38.35;23.90;;;;;;;12.69;57.90;103109.50;5277589;28;20079;-69
2022/03/26 09:09:30;;;;;;;32.28;21.50;;;;;;;12.80;58.01;103119.72;5266668;28;20032;-68
2022/03/26 09:12:02;;;;;;;29.08;22.05;;;;;;;12.80;57.27;103111.34;5242745;28;20047;-69
2022/03/26 09:14:33;;;;;;;29.45;21.88;;;;;;;12.79;56.61;103123.59;5256694;28;20462;-67
2022/03/26 09:17:04;;;;;;;29.63;22.05;;;;;;;13.02;56.57;103119.84;5264689;28;20025;-70
2022/03/26 09:19:37;;;;;;;29.98;20.90;;;;;;;13.13;57.42;103118.91;5251433;28;20037;-71
2022/03/26 09:22:09;;;;;;;29.38;22.88;;;;;;;13.17;55.42;103124.84;5243732;28;20065;-70
2022/03/26 09:24:40;;;;;;;37.70;25.25;;;;;;;13.17;55.38;103120.13;5243911;28;20477;-72
2022/03/26 09:27:12;;;;;;;31.92;23.20;;;;;;;13.33;55.72;103126.00;5249214;28;20029;-69
2022/03/26 09:29:45;;;;;;;34.65;24.40;;;;;;;13.36;53.84;103119.91;5264737;28;20035;-72
2022/03/26 09:32:16;;;;;;;39.95;34.08;;;;;;;13.45;53.15;103123.97;5245976;28;20025;-72
2022/03/26 09:34:48;;;;;;;36.53;25.27;;;;;;;13.52;54.87;103129.34;5243479;28;20018;-71
2022/03/26 09:37:20;;;;;;;39.15;27.92;;;;;;;13.60;53.66;103128.91;5243733;28;20148;-71
2022/03/26 09:39:51;;;;;;;31.55;24.05;;;;;;;13.67;53.05;103121.22;5243023;28;20053;-71
2022/03/26 09:42:24;;;;;;;36.65;22.58;;;;;;;13.67;54.44;103121.22;5250084;28;20051;-70
2022/03/26 09:44:56;;;;;;;35.78;25.13;;;;;;;13.74;55.76;103124.69;5256523;28;20573;-71
2022/03/26 09:47:27;;;;;;;34.10;23.05;;;;;;;13.78;52.73;103120.31;5254726;28;20083;-71
2022/03/26 09:50:00;;;;;;;35.35;23.48;;;;;;;13.83;52.10;103122.28;5247210;28;20021;-72
2022/03/26 09:52:39;;;;;;;32.78;22.88;;;;;;;13.91;52.27;103122.72;5243978;28;20400;-71
2022/03/26 09:55:12;;;;;;;33.90;22.92;;;;;;;13.95;51.63;103102.66;5256319;28;20029;-71
2022/03/26 09:57:43;;;;;;;34.05;21.55;;;;;;;14.08;51.76;103114.28;5263922;28;20045;-71
2022/03/26 10:00:16;;;;;;;34.63;23.50;;;;;;;14.19;51.27;103109.72;5244532;28;20036;-70
2022/03/26 10:02:47;;;;;;;44.00;30.02;;;;;;;14.16;50.76;103113.00;5254662;28;20136;-71
2022/03/26 10:05:19;;;;;;;32.25;25.17;;;;;;;14.29;51.73;103118.22;5263350;28;20033;-71
2022/03/26 10:07:51;;;;;;;37.05;26.63;;;;;;;14.36;50.22;103112.41;5263351;28;20070;-70
2022/03/26 10:10:24;;;;;;;34.20;23.58;;;;;;;14.44;50.15;103116.69;5249033;28;20133;-69
2022/03/26 10:12:55;;;;;;;33.70;23.90;;;;;;;14.51;50.09;103114.56;5248972;28;20026;-70
2022/03/26 10:15:26;;;;;;;33.58;26.67;;;;;;;14.63;50.82;103112.50;5245971;28;20036;-70
2022/03/26 10:18:08;;;;;;;31.63;23.10;;;;;;;14.72;49.67;103108.09;5260424;28;20025;-71
2022/03/26 10:20:39;;;;;;;35.15;24.25;;;;;;;14.69;49.39;103097.47;5257511;28;20025;-67
2022/03/26 10:23:11;;;;;;;32.28;21.90;;;;;;;14.70;50.30;103107.56;5260512;28;20032;-71
2022/03/26 10:25:42;;;;;;;25.73;18.40;;;;;;;14.72;47.79;103105.31;5255308;28;20171;-69
2022/03/26 10:28:24;;;;;;;28.27;22.63;;;;;;;14.79;48.37;103110.69;5243157;28;20021;-72
2022/03/26 10:34:08;;;;;;;25.65;19.63;;;;;;;14.88;47.01;103103.53;5262289;28;20119;-69
2022/03/26 10:36:44;;;;;;;25.15;17.67;;;;;;;14.96;46.99;103103.06;5247144;28;20025;-69
2022/03/26 10:39:24;;;;;;;25.70;17.88;;;;;;;15.08;45.95;103108.47;5252076;28;20029;-70
2022/03/26 10:41:56;;;;;;;25.60;15.88;;;;;;;15.02;45.20;103103.94;5242563;28;20076;-69
2022/03/26 10:44:29;;;;;;;18.23;14.82;;;;;;;15.16;46.03;103102.41;5241307;28;20104;-70
2022/03/26 10:47:03;;;;;;;24.88;16.90;;;;;;;15.11;45.86;103101.50;5242365;28;20029;-71
2022/03/26 10:49:37;;;;;;;24.38;16.83;;;;;;;15.27;45.50;103097.75;5242796;28;20021;-78
2022/03/26 10:52:16;;;;;;;25.67;19.00;;;;;;;15.35;45.06;103090.81;5243822;28;20129;-79
2022/03/26 10:54:49;;;;;;;24.98;18.55;;;;;;;15.41;43.73;103100.91;5243281;28;20036;-79
2022/03/26 10:57:24;;;;;;;47.45;28.60;;;;;;;15.33;44.63;103096.66;5243151;28;20034;-80
2022/03/26 10:59:56;;;;;;;30.58;21.15;;;;;;;15.30;43.64;103090.78;5243713;28;20381;-79
2022/03/26 11:02:27;;;;;;;27.85;17.80;;;;;;;15.49;43.56;103092.03;5242556;28;20029;-74
2022/03/26 11:04:59;;;;;;;22.40;16.55;;;;;;;15.56;42.51;103084.25;5255713;28;20036;-75
2022/03/26 11:07:32;;;;;;;21.70;14.50;;;;;;;15.72;42.67;103092.78;5265123;28;20078;-76
2022/03/26 11:10:06;;;;;;;21.08;13.77;;;;;;;15.77;41.64;103092.81;5262425;28;20028;-74
2022/03/26 11:12:47;;;;;;;25.75;14.85;;;;;;;15.80;41.83;103097.88;5257153;28;20460;-80
2022/03/26 11:15:34;;;;;;;18.08;12.60;;;;;;;15.83;41.11;103094.53;5242743;28;20085;-75
2022/03/26 11:18:35;;;;;;;20.58;15.73;;;;;;;15.83;41.69;103086.97;5242271;28;20037;-77
2022/03/26 11:21:16;;;;;;;24.95;15.88;;;;;;;15.93;42.31;103086.19;5242885;28;20029;-76
2022/03/26 11:24:11;;;;;;;23.45;12.75;;;;;;;15.99;42.64;103089.84;5263506;28;20025;-76
2022/03/26 11:27:18;;;;;;;20.15;11.68;;;;;;;16.07;42.71;103081.78;5257772;28;20025;-77
2022/03/26 11:30:03;;;;;;;19.65;13.43;;;;;;;16.11;42.70;103081.25;5260152;28;20033;-77
2022/03/26 11:32:43;;;;;;;14.88;12.18;;;;;;;16.12;43.03;103083.75;5257714;28;20801;-82
2022/03/26 11:35:16;;;;;;;19.42;13.80;;;;;;;16.15;43.29;103082.38;5258039;28;20155;-80
2022/03/26 11:38:02;;;;;;;16.55;11.23;;;;;;;16.23;43.87;103079.91;5257616;28;20063;-81
2022/03/26 11:40:39;;;;;;;19.80;13.50;;;;;;;16.23;43.81;103079.91;5261343;28;20044;-81
2022/03/26 11:43:11;;;;;;;17.77;11.70;;;;;;;16.37;44.02;103077.41;5263345;28;20040;-81
2022/03/26 11:51:31;;;;;;;17.25;11.65;;;;;;;16.54;44.71;103060.41;5266267;28;20036;-79
2022/03/26 11:54:20;;;;;;;16.58;10.60;;;;;;;16.68;44.94;103066.28;5249710;28;20025;-81
2022/03/26 11:57:16;;;;;;;12.93;10.82;;;;;;;16.78;44.29;103060.75;5245211;28;20108;-81
2022/03/26 11:59:52;;;;;;;11.63;9.55;;;;;;;16.91;44.79;103056.56;5250160;28;20034;-81
2022/03/26 12:02:27;;;;;;;17.38;8.45;;;;;;;17.04;44.40;103058.78;5241933;28;20045;-81
2022/03/26 12:06:35;;;;;;;11.98;9.48;;;;;;;17.10;44.23;103052.09;5249030;28;20033;-79
2022/03/26 12:08:18;;;;;;;12.75;10.30;;;;;;;17.17;44.06;103040.56;5245197;28;20056;-79
2022/03/26 12:10:50;;;;;;;15.63;12.52;;;;;;;17.42;43.63;103050.09;5246677;28;20086;-76
2022/03/26 12:13:22;;;;;;;12.95;10.57;;;;;;;17.39;43.43;103054.28;5262942;28;20025;-81
2022/03/26 12:16:05;;;;;;;14.40;9.70;;;;;;;17.46;44.08;103045.56;5257744;28;20017;-80
2022/03/26 12:18:38;;;;;;;13.10;9.82;;;;;;;17.63;43.19;103034.88;5248196;28;20057;-73
2022/03/26 12:21:22;;;;;;;17.55;10.57;;;;;;;17.59;43.67;103045.84;5258084;28;20058;-77
2022/03/26 12:23:54;;;;;;;11.45;9.68;;;;;;;17.71;42.89;103037.09;5241973;28;20021;-75
2022/03/26 12:26:25;;;;;;;13.73;10.70;;;;;;;17.62;42.80;103038.81;5243536;28;20029;-75
2022/03/26 12:28:58;;;;;;;12.45;9.43;;;;;;;17.72;42.83;103033.19;5262526;28;20524;-81
2022/03/26 12:31:41;;;;;;;16.58;11.52;;;;;;;17.72;42.79;103033.19;5262316;28;20060;-77
2022/03/26 12:34:13;;;;;;;15.50;9.60;;;;;;;17.90;41.88;103030.91;5242050;28;20499;-73
2022/03/26 12:36:44;;;;;;;15.68;11.90;;;;;;;18.00;42.31;103028.06;5253237;28;20021;-76
2022/03/26 12:39:16;;;;;;;11.05;8.55;;;;;;;18.19;41.68;103020.66;5241420;28;20030;-78
2022/03/26 12:41:49;;;;;;;13.15;9.00;;;;;;;18.13;41.52;103026.59;5241858;28;20102;-77
2022/03/26 12:44:22;;;;;;;9.45;8.20;;;;;;;18.14;41.33;103023.47;5243209;28;20025;-80
2022/03/26 12:46:55;;;;;;;10.00;8.00;;;;;;;18.33;41.22;103025.63;5245294;28;20108;-75
2022/03/26 12:49:27;;;;;;;10.90;7.43;;;;;;;18.11;39.53;103026.88;5245125;28;20109;-79
2022/03/26 12:52:01;;;;;;;9.20;7.32;;;;;;;18.18;40.06;103021.78;5249847;28;20120;-76
2022/03/26 12:54:32;;;;;;;11.70;7.10;;;;;;;18.33;40.47;103012.44;5253673;28;20051;-79
2022/03/26 12:57:04;;;;;;;9.23;8.25;;;;;;;18.44;39.90;103016.03;5245550;28;20121;-78
2022/03/26 12:59:35;;;;;;;51.30;46.00;;;;;;;18.28;40.01;103017.22;5264303;28;20032;-78
2022/03/26 13:02:10;;;;;;;19.05;12.52;;;;;;;18.50;39.85;103012.03;5251206;28;20033;-79
2022/03/26 13:04:41;;;;;;;10.07;6.85;;;;;;;18.47;39.75;103007.00;5272154;28;20025;-77
2022/03/26 13:07:13;;;;;;;10.63;7.20;;;;;;;18.72;39.31;103002.34;5273006;28;20066;-78
2022/03/26 13:09:44;;;;;;;8.88;6.70;;;;;;;18.86;38.70;102992.94;5255300;28;20024;-79
2022/03/26 13:12:27;;;;;;;82.07;74.53;;;;;;;18.86;38.96;103001.38;5375492;22;20056;-78
2022/03/26 13:14:58;;;;;;;13.05;8.95;;;;;;;18.86;38.74;102984.53;5265787;28;20033;-78
2022/03/26 13:17:29;;;;;;;9.82;6.65;;;;;;;18.79;38.10;102992.47;5264061;28;20029;-73
2022/03/26 13:20:01;;;;;;;8.68;6.72;;;;;;;18.86;38.16;102992.13;5261452;28;20112;-72
2022/03/26 13:22:35;;;;;;;16.30;6.65;;;;;;;18.92;37.96;102990.97;5242478;28;20092;-72
2022/03/26 13:25:07;;;;;;;12.25;8.35;;;;;;;19.01;37.82;102991.16;5243884;28;20095;-74
2022/03/26 13:27:39;;;;;;;10.85;7.45;;;;;;;19.17;37.95;102981.41;5244540;28;20477;-72
2022/03/26 13:30:11;;;;;;;10.77;7.85;;;;;;;19.09;37.38;102982.06;5262708;28;20074;-72
2022/03/26 13:32:43;;;;;;;9.80;6.57;;;;;;;19.24;37.62;102975.47;5264281;28;20025;-76
2022/03/26 13:35:15;;;;;;;8.38;6.35;;;;;;;19.29;36.99;102978.22;5263772;28;20037;-79
2022/03/26 13:37:49;;;;;;;8.02;6.30;;;;;;;19.42;36.92;102971.88;5264866;28;20115;-78
2022/03/26 13:40:31;;;;;;;9.75;7.68;;;;;;;19.18;37.48;102971.03;5260695;28;20035;-81
2022/03/26 13:43:03;;;;;;;14.45;8.95;;;;;;;19.34;37.20;102956.47;5243605;28;20021;-77
2022/03/26 13:45:35;;;;;;;10.10;8.02;;;;;;;19.53;37.22;102964.16;5250196;28;20028;-77
2022/03/26 13:48:09;;;;;;;8.88;6.97;;;;;;;19.51;36.31;102967.28;5244918;28;20048;-79
2022/03/26 13:50:41;;;;;;;117.10;104.83;;;;;;;19.64;36.25;102970.50;5250431;28;20018;-78
2022/03/26 13:53:18;;;;;;;19.35;10.30;;;;;;;19.80;36.94;102969.19;5244421;28;20522;-79
2022/03/26 13:55:52;;;;;;;12.20;7.65;;;;;;;19.66;36.46;102962.56;5244409;28;20083;-79
2022/03/26 13:58:23;;;;;;;21.65;12.13;;;;;;;19.88;36.50;102959.25;5242060;28;20030;-80
2022/03/26 14:00:55;;;;;;;11.60;7.95;;;;;;;19.83;36.28;102962.97;5236115;28;20079;-80
2022/03/26 14:03:26;;;;;;;11.32;10.05;;;;;;;19.64;35.92;102954.47;5245390;28;20061;-78
2022/03/26 14:05:57;;;;;;;11.45;7.10;;;;;;;19.71;36.74;102959.72;5226255;28;20079;-83
2022/03/26 14:08:29;;;;;;;8.98;6.85;;;;;;;19.78;36.70;102943.31;5241774;28;20566;-71
2022/03/26 14:11:01;;;;;;;8.75;6.88;;;;;;;19.97;37.22;102949.81;5242076;28;20534;-80
2022/03/26 14:13:33;;;;;;;11.20;9.13;;;;;;;20.04;36.60;102945.78;5242913;28;20504;-81
2022/03/26 14:16:04;;;;;;;7.90;6.63;;;;;;;20.16;36.73;102949.00;5243674;28;20055;-80
2022/03/26 14:18:39;;;;;;;9.48;7.20;;;;;;;19.93;35.84;102940.28;5243944;28;20036;-78
2022/03/26 14:21:10;;;;;;;8.90;8.07;;;;;;;19.94;35.19;102944.81;5263064;28;20032;-77
2022/03/26 14:23:42;;;;;;;9.63;7.05;;;;;;;19.82;36.10;102944.41;5264351;28;20033;-77
2022/03/26 14:26:13;;;;;;;11.35;8.05;;;;;;;19.96;35.90;102934.06;5263803;28;20104;-75
2022/03/26 14:28:45;;;;;;;10.13;7.18;;;;;;;19.97;35.56;102935.75;5263755;28;20063;-73
2022/03/26 14:31:17;;;;;;;14.15;9.57;;;;;;;19.96;34.92;102934.06;5249108;28;20112;-73
2022/03/26 14:33:49;;;;;;;10.63;8.45;;;;;;;20.23;35.52;102926.91;5237187;28;20053;-78
2022/03/26 14:36:23;;;;;;;15.52;9.73;;;;;;;20.24;34.67;102933.38;5247030;28;20061;-81
2022/03/26 14:38:54;;;;;;;8.88;7.43;;;;;;;20.24;34.57;102925.75;5262730;28;20033;-82
2022/03/26 14:41:25;;;;;;;9.30;6.22;;;;;;;20.18;35.52;102927.81;5243752;28;20021;-82
2022/03/26 14:43:57;;;;;;;30.05;26.90;;;;;;;20.25;35.03;102919.00;5240955;28;20068;-79
2022/03/26 14:46:30;;;;;;;10.80;8.90;;;;;;;20.18;35.07;102924.19;5243615;28;20034;-79
2022/03/26 14:49:07;;;;;;;11.82;10.63;;;;;;;20.04;35.81;102926.06;5224630;28;20428;-78
2022/03/26 14:51:38;;;;;;;17.70;9.05;;;;;;;20.10;36.05;102922.06;5242750;28;20060;-80
2022/03/26 14:54:10;;;;;;;9.23;7.45;;;;;;;20.01;35.17;102912.59;5253714;28;20065;-81
2022/03/26 14:56:44;;;;;;;9.52;8.52;;;;;;;20.02;35.51;102919.91;5263212;28;20488;-79
2022/03/26 14:59:15;;;;;;;9.25;8.23;;;;;;;20.04;34.97;102914.81;5264817;28;20100;-81
2022/03/26 15:01:49;;;;;;;11.65;8.73;;;;;;;20.08;34.95;102913.06;5271290;28;20032;-76
2022/03/26 15:04:20;;;;;;;13.00;10.68;;;;;;;20.00;34.73;102911.78;5241910;28;20026;-72
2022/03/26 15:06:52;;;;;;;14.88;12.43;;;;;;;20.11;33.20;102915.25;5241524;28;20499;-72
2022/03/26 15:09:23;;;;;;;14.63;9.60;;;;;;;19.98;33.47;102909.25;5242066;28;20465;-71
2022/03/26 15:11:54;;;;;;;12.02;10.13;;;;;;;20.09;33.46;102914.72;5257599;28;20404;-72
2022/03/26 15:14:27;;;;;;;12.32;10.98;;;;;;;20.23;33.76;102904.38;5263230;28;20067;-74
2022/03/26 15:17:04;;;;;;;12.75;10.48;;;;;;;20.08;33.58;102907.44;5262820;28;20052;-74
2022/03/26 15:19:35;;;;;;;14.82;10.75;;;;;;;20.00;33.26;102903.31;5261999;28;20527;-74
2022/03/26 15:22:07;;;;;;;13.23;10.88;;;;;;;20.09;32.87;102901.47;5252949;28;20108;-76
2022/03/26 15:24:38;;;;;;;11.95;10.48;;;;;;;20.08;34.33;102902.63;5243171;28;20033;-75
2022/03/26 15:27:10;;;;;;;16.77;14.80;;;;;;;20.01;33.45;102901.34;5244849;28;20461;-77
2022/03/26 15:29:42;;;;;;;15.07;13.48;;;;;;;20.05;33.81;102891.16;5262728;28;20392;-76
2022/03/26 15:32:13;;;;;;;14.75;11.57;;;;;;;19.84;33.84;102897.09;5243049;28;20024;-77
2022/03/26 15:34:53;;;;;;;14.80;10.73;;;;;;;20.11;33.91;102895.53;5241966;28;20033;-76
2022/03/26 15:37:25;;;;;;;13.77;11.63;;;;;;;19.99;33.70;102893.19;5241883;28;20029;-77
2022/03/26 15:39:57;;;;;;;15.25;10.55;;;;;;;19.93;34.09;102895.25;5241192;28;20025;-75
2022/03/26 15:42:29;;;;;;;12.95;11.18;;;;;;;20.02;33.86;102884.16;5228272;28;20501;-75
2022/03/26 15:45:02;;;;;;;14.98;10.88;;;;;;;19.95;33.50;102894.94;5248254;28;20049;-74
2022/03/26 15:47:33;;;;;;;12.65;9.50;;;;;;;19.98;34.70;102892.34;5261837;28;20379;-73
2022/03/26 15:50:05;;;;;;;16.10;13.20;;;;;;;20.04;35.02;102883.81;5261946;28;20017;-72
2022/03/26 15:52:36;;;;;;;17.30;13.23;;;;;;;19.98;35.35;102883.91;5261752;28;20078;-74
2022/03/26 15:55:08;;;;;;;17.83;13.25;;;;;;;19.81;34.08;102886.41;5262193;28;20021;-74
2022/03/26 15:57:39;;;;;;;14.52;12.45;;;;;;;19.92;34.16;102887.13;5261804;28;20044;-72
2022/03/26 16:00:14;;;;;;;11.40;10.13;;;;;;;19.88;33.29;102886.88;5261432;28;20086;-71
2022/03/26 16:02:45;;;;;;;16.17;10.63;;;;;;;19.78;33.85;102878.56;5262136;28;20103;-73
2022/03/26 16:05:17;;;;;;;16.85;10.95;;;;;;;19.86;33.82;102882.69;5262206;28;20132;-73
2022/03/26 16:07:48;;;;;;;21.92;19.30;;;;;;;19.72;34.16;102880.63;5260853;28;20362;-75
2022/03/26 16:10:20;;;;;;;47.08;42.00;;;;;;;19.85;33.67;102886.66;5262216;28;20029;-73
2022/03/26 16:12:51;;;;;;;22.10;16.52;;;;;;;19.83;34.06;102881.31;5545439;22;20114;-72
2022/03/26 16:15:23;;;;;;;16.40;11.63;;;;;;;19.68;33.85;102888.00;5241063;28;20033;-71
2022/03/26 16:17:54;;;;;;;15.20;13.68;;;;;;;19.64;33.75;102886.06;5241612;28;20083;-72
2022/03/26 16:20:27;;;;;;;22.45;16.75;;;;;;;19.69;34.18;102881.25;5255300;28;20045;-72
2022/03/26 16:22:58;;;;;;;14.60;10.85;;;;;;;19.67;35.70;102877.06;5244061;28;20036;-72
2022/03/26 16:25:30;;;;;;;16.63;10.68;;;;;;;19.71;34.48;102875.28;5245088;28;20034;-71
2022/03/26 16:28:01;;;;;;;19.83;11.60;;;;;;;19.30;34.37;102881.41;5244201;28;20033;-71
2022/03/26 16:30:33;;;;;;;15.82;9.48;;;;;;;19.39;35.41;102882.44;5245024;28;20453;-71
2022/03/26 16:33:06;;;;;;;14.00;10.10;;;;;;;19.38;35.00;102883.59;5245067;28;20033;-71
2022/03/26 16:35:37;;;;;;;15.48;10.68;;;;;;;19.22;34.67;102882.91;5250916;28;20032;-71
2022/03/26 16:38:08;;;;;;;14.63;9.98;;;;;;;19.26;34.24;102880.38;5265886;28;20032;-71
2022/03/26 16:40:40;;;;;;;18.88;10.27;;;;;;;19.09;34.23;102880.81;5265772;28;20055;-72
2022/03/26 16:43:11;;;;;;;13.25;10.38;;;;;;;18.99;35.01;102875.31;5264812;28;20029;-73
2022/03/26 16:45:43;;;;;;;16.13;9.82;;;;;;;18.98;34.51;102874.50;5826230;22;20029;-72
2022/03/26 16:48:17;;;;;;;30.88;25.08;;;;;;;18.94;34.40;102883.81;5222591;28;20042;-72
2022/03/26 16:50:48;;;;;;;15.77;10.88;;;;;;;18.80;34.43;102881.69;5223545;28;20030;-72
2022/03/26 16:53:20;;;;;;;16.52;10.20;;;;;;;18.76;34.75;102882.59;5222945;28;20403;-73
2022/03/26 16:55:51;;;;;;;16.52;11.02;;;;;;;18.45;35.33;102889.28;5208641;28;20088;-72
2022/03/26 16:58:24;;;;;;;19.65;11.45;;;;;;;18.55;36.25;102882.75;5203354;28;20023;-74
2022/03/26 17:00:58;;;;;;;15.90;11.25;;;;;;;18.47;35.58;102881.41;5203723;28;20478;-74
2022/03/26 17:03:29;;;;;;;17.48;10.27;;;;;;;18.41;35.89;102882.59;5202699;28;20468;-72
2022/03/26 17:06:01;;;;;;;17.75;10.63;;;;;;;18.43;37.60;102885.09;5203363;28;20034;-75
2022/03/26 17:08:33;;;;;;;20.00;13.80;;;;;;;18.21;37.05;102877.16;5203724;28;20029;-76
2022/03/26 17:11:05;;;;;;;19.98;12.45;;;;;;;18.27;37.31;102883.56;5219542;28;20117;-74
2022/03/26 17:13:38;;;;;;;15.73;11.48;;;;;;;18.29;37.34;102886.91;5223469;28;20022;-73
2022/03/26 17:16:10;;;;;;;22.58;12.13;;;;;;;18.27;37.30;102886.38;5223776;28;20057;-74
2022/03/26 17:18:42;;;;;;;16.90;11.57;;;;;;;18.18;36.99;102884.19;5543760;22;20055;-73
2022/03/26 17:21:14;;;;;;;24.20;13.82;;;;;;;18.10;37.67;102893.25;5222698;28;20038;-75
2022/03/26 17:23:46;;;;;;;19.92;16.52;;;;;;;17.95;37.40;102884.91;5223332;28;20061;-75
